Time;durP1;ratioP1;P1;durP2;ratioP2;P2;SDS_P1;SDS_P2;PMS_P1;PMS_P2;Temp;Humidity;BMP_temperature;BMP_pressure;BME280_temperature;BME280_humidity;BME280_pressure;Samples;Min_cycle;Max_cycle;Signal;HPM_P1;HPM_P2
2023/10/17 00:02:34;;;;;;;;;;;21.60;56.50;;;;;;5020324;28;43796;-80
2023/10/17 00:20:40;;;;;;;;;;;21.60;55.90;;;;;;5063681;28;43118;-79
2023/10/17 00:29:26;;;;;;;;;;;21.50;55.90;;;;;;5063144;28;42850;-80
2023/10/17 00:31:51;;;;;;;;;;;21.50;57.70;;;;;;5052875;28;42889;-78
2023/10/17 00:34:21;;;;;;;;;;;21.60;57.90;;;;;;5073091;28;43995;-78
2023/10/17 00:39:32;;;;;;;;;;;21.60;58.40;;;;;;5072603;28;43012;-79
2023/10/17 00:44:32;;;;;;;;;;;21.60;58.40;;;;;;5065086;28;43363;-80
2023/10/17 00:46:58;;;;;;;;;;;21.50;58.10;;;;;;5065105;28;42935;-80
2023/10/17 00:49:25;;;;;;;;;;;21.60;58.40;;;;;;5065265;28;43859;-80
2023/10/17 00:51:52;;;;;;;;;;;21.50;57.90;;;;;;5065753;28;42750;-79
2023/10/17 00:54:20;;;;;;;;;;;21.60;57.90;;;;;;5065439;28;43460;-80
2023/10/17 00:56:46;;;;;;;;;;;21.40;58.40;;;;;;5065353;28;42817;-80
2023/10/17 00:59:11;;;;;;;;;;;21.60;58.40;;;;;;5063197;28;43061;-80
2023/10/17 01:01:40;;;;;;;;;;;21.60;58.50;;;;;;5064924;28;42900;-79
2023/10/17 01:04:05;;;;;;;;;;;21.50;58.40;;;;;;5065453;28;44341;-80
2023/10/17 02:02:56;;;;;;;;;;;21.70;56.90;;;;;;4999534;28;43321;-80
2023/10/17 02:09:00;;;;;;;;;;;21.70;58.70;;;;;;4963521;28;43453;-80
2023/10/17 02:11:43;;;;;;;;;;;21.70;58.80;;;;;;4968100;28;43056;-81
2023/10/17 03:07:51;;;;;;;;;;;21.50;57.10;;;;;;5061010;28;43058;-79
2023/10/17 03:10:37;;;;;;;;;;;21.60;59.00;;;;;;5072469;28;42923;-80
2023/10/17 03:15:46;;;;;;;;;;;21.60;59.30;;;;;;5047905;28;42877;-79
2023/10/17 03:18:16;;;;;;;;;;;21.40;59.40;;;;;;5055193;28;43061;-79
2023/10/17 03:21:02;;;;;;;;;;;21.60;59.60;;;;;;5067494;28;43026;-79
2023/10/17 03:23:28;;;;;;;;;;;21.50;59.30;;;;;;5064487;28;43531;-80
2023/10/17 03:26:00;;;;;;;;;;;21.50;59.30;;;;;;5066778;28;42888;-79
2023/10/17 03:28:27;;;;;;;;;;;21.80;59.60;;;;;;5066829;28;43295;-80
2023/10/17 03:30:54;;;;;;;;;;;21.50;59.30;;;;;;5066894;28;42895;-80
2023/10/17 03:33:26;;;;;;;;;;;21.70;57.50;;;;;;5067201;28;43598;-79
2023/10/17 03:38:27;;;;;;;;;;;21.60;59.50;;;;;;5066849;28;43545;-80
2023/10/17 03:41:03;;;;;;;;;;;21.60;59.40;;;;;;5065710;28;42859;-79
2023/10/17 03:43:37;;;;;;;;;;;21.50;59.40;;;;;;5032593;28;45665;-80
2023/10/17 03:46:06;;;;;;;;;;;21.40;59.30;;;;;;5066616;28;42876;-79
2023/10/17 03:56:24;;;;;;;;;;;21.80;58.60;;;;;;5289631;22;43119;-79
2023/10/17 04:01:18;;;;;;;;;;;21.60;57.40;;;;;;5026480;28;43184;-79
2023/10/17 04:03:45;;;;;;;;;;;21.40;59.40;;;;;;5024807;28;43718;-79
2023/10/17 04:08:48;;;;;;;;;;;21.60;59.60;;;;;;5026293;28;43581;-79
2023/10/17 04:40:54;;;;;;;;;;;21.60;59.10;;;;;;5021672;28;42904;-79
2023/10/17 04:46:08;;;;;;;;;;;21.30;58.50;;;;;;5002925;28;43172;-80
2023/10/17 04:48:35;;;;;;;;;;;21.60;59.80;;;;;;4980758;28;43955;-80
2023/10/17 04:53:48;;;;;;;;;;;21.50;59.40;;;;;;4995736;28;43420;-79
2023/10/17 04:56:18;;;;;;;;;;;21.60;57.40;;;;;;4994059;28;43554;-76
2023/10/17 05:01:39;;;;;;;;;;;21.50;60.40;;;;;;5002540;28;43057;-79
2023/10/17 06:17:49;;;;;;;;;;;19.70;59.50;;;;;;5059469;28;42908;-81
2023/10/17 06:28:27;;;;;;;;;;;19.70;60.00;;;;;;5052797;28;44051;-80
2023/10/17 06:33:37;;;;;;;;;;;19.70;61.60;;;;;;5057933;28;43116;-84
2023/10/17 06:36:24;;;;;;;;;;;19.80;62.00;;;;;;5046582;28;43522;-81
2023/10/17 06:44:30;;;;;;;;;;;19.80;56.30;;;;;;5024106;28;43002;-80
2023/10/17 06:46:57;;;;;;;;;;;19.80;58.00;;;;;;5026082;28;43368;-79
2023/10/17 06:59:43;;;;;;;;;;;20.00;58.60;;;;;;6132668;22;43682;-78
2023/10/17 07:02:42;;;;;;;;;;;19.90;58.60;;;;;;5060834;28;45185;-77
2023/10/17 07:05:01;;;;;;;;;;;19.80;56.70;;;;;;5059523;28;42993;-80
2023/10/17 07:07:40;;;;;;;;;;;19.90;58.70;;;;;;5060748;28;43615;-78
2023/10/17 07:10:18;;;;;;;;;;;19.90;59.10;;;;;;5059399;28;43122;-79
2023/10/17 07:12:50;;;;;;;;;;;20.30;59.00;;;;;;5066937;28;43556;-78
2023/10/17 07:15:19;;;;;;;;;;;19.90;56.70;;;;;;5063741;28;43086;-79
2023/10/17 07:23:19;;;;;;;;;;;19.90;57.40;;;;;;5056217;28;43196;-85
2023/10/17 07:25:49;;;;;;;;;;;20.10;57.60;;;;;;5057648;28;43192;-81
2023/10/17 07:28:15;;;;;;;;;;;20.20;59.40;;;;;;5054902;28;43069;-80
2023/10/17 07:30:49;;;;;;;;;;;19.90;59.70;;;;;;5049075;28;42761;-76
2023/10/17 07:33:17;;;;;;;;;;;20.10;59.20;;;;;;5056724;28;43624;-87
2023/10/17 07:35:43;;;;;;;;;;;19.90;58.90;;;;;;5051991;28;43040;-76
2023/10/17 07:38:13;;;;;;;;;;;20.10;59.30;;;;;;5058298;28;43731;-79
2023/10/17 07:43:07;;;;;;;;;;;20.00;59.10;;;;;;5060262;28;42944;-88
2023/10/17 07:45:39;;;;;;;;;;;20.10;59.00;;;;;;5056220;28;43128;-83
2023/10/17 07:48:20;;;;;;;;;;;20.20;59.10;;;;;;5058724;28;42985;-77
2023/10/17 07:50:47;;;;;;;;;;;20.20;57.20;;;;;;5057729;28;43129;-75
2023/10/17 07:53:19;;;;;;;;;;;20.10;58.60;;;;;;5056164;28;43334;-75
2023/10/17 07:55:48;;;;;;;;;;;20.10;57.50;;;;;;5058259;28;43167;-77
2023/10/17 07:58:17;;;;;;;;;;;20.10;58.00;;;;;;5057076;28;42880;-78
2023/10/17 08:00:43;;;;;;;;;;;19.50;58.10;;;;;;5056924;28;43525;-77
2023/10/17 08:03:15;;;;;;;;;;;20.20;58.90;;;;;;5046243;28;43716;-78
2023/10/17 08:06:05;;;;;;;;;;;20.10;58.10;;;;;;5061243;28;43053;-78
2023/10/17 08:08:33;;;;;;;;;;;20.10;56.80;;;;;;5051207;28;43126;-78
2023/10/17 08:10:59;;;;;;;;;;;;;;;;;;5060361;28;42991;-79
2023/10/17 08:13:24;;;;;;;;;;;20.20;57.10;;;;;;5067636;28;43715;-79
2023/10/17 08:15:53;;;;;;;;;;;20.10;57.80;;;;;;5069098;28;42687;-78
2023/10/17 08:18:28;;;;;;;;;;;20.00;56.70;;;;;;5067820;28;43945;-78
2023/10/17 08:23:26;;;;;;;;;;;20.10;56.60;;;;;;5046434;28;42757;-80
2023/10/17 08:25:59;;;;;;;;;;;20.20;58.20;;;;;;5051676;28;43192;-76
2023/10/17 08:28:46;;;;;;;;;;;20.20;58.10;;;;;;5061172;28;44398;-78
2023/10/17 08:36:42;;;;;;;;;;;20.20;56.90;;;;;;5065574;22;43103;-77
2023/10/17 08:42:05;;;;;;;;;;;20.20;56.70;;;;;;5050311;28;43015;-79
2023/10/17 08:44:33;;;;;;;;;;;20.20;57.40;;;;;;5051817;28;43654;-78
2023/10/17 08:46:59;;;;;;;;;;;20.20;57.40;;;;;;5050629;28;43059;-78
2023/10/17 08:49:28;;;;;;;;;;;20.20;56.90;;;;;;5062012;28;43482;-78
2023/10/17 08:51:56;;;;;;;;;;;20.30;55.90;;;;;;5041501;28;42951;-78
2023/10/17 08:54:22;;;;;;;;;;;20.20;57.10;;;;;;5057551;28;42983;-77
2023/10/17 08:56:47;;;;;;;;;;;20.30;57.40;;;;;;5058447;28;42908;-77
2023/10/17 08:59:15;;;;;;;;;;;20.40;57.50;;;;;;5051230;28;43337;-78
2023/10/17 09:02:14;;;;;;;;;;;20.30;57.00;;;;;;5059670;28;43041;-77
2023/10/17 09:04:42;;;;;;;;;;;20.20;55.50;;;;;;5060566;28;45275;-78
2023/10/17 09:07:09;;;;;;;;;;;20.30;56.90;;;;;;5045150;28;43080;-77
2023/10/17 09:09:34;;;;;;;;;;;20.40;56.80;;;;;;5057115;28;43887;-78
2023/10/17 09:12:19;;;;;;;;;;;20.30;57.10;;;;;;5060684;28;43086;-77
2023/10/17 09:14:48;;;;;;;;;;;20.40;57.30;;;;;;5065261;28;42957;-77
2023/10/17 09:19:52;;;;;;;;;;;20.40;56.90;;;;;;5156016;22;43240;-77
2023/10/17 09:22:24;;;;;;;;;;;20.60;57.50;;;;;;5045614;28;43012;-76
2023/10/17 09:24:50;;;;;;;;;;;20.20;55.60;;;;;;5042232;28;42956;-76
2023/10/17 09:27:16;;;;;;;;;;;20.20;56.90;;;;;;5032452;28;42840;-77
2023/10/17 09:29:49;;;;;;;;;;;20.40;57.50;;;;;;5041395;28;42900;-76
2023/10/17 09:32:48;;;;;;;;;;;20.70;55.80;;;;;;5041536;28;43174;-78
2023/10/17 09:35:15;;;;;;;;;;;20.20;55.60;;;;;;4984676;28;43630;-78
2023/10/17 09:37:44;;;;;;;;;;;20.50;57.60;;;;;;5037550;28;43038;-77
2023/10/17 09:40:12;;;;;;;;;;;20.50;57.00;;;;;;5033096;28;43365;-78
2023/10/17 09:42:46;;;;;;;;;;;20.50;57.40;;;;;;5039665;28;43010;-78
2023/10/17 09:45:13;;;;;;;;;;;20.40;57.50;;;;;;5043455;28;44501;-78
2023/10/17 09:47:46;;;;;;;;;;;20.50;57.00;;;;;;5044419;28;43211;-77
2023/10/17 09:50:13;;;;;;;;;;;20.20;55.50;;;;;;5034033;28;42896;-78
2023/10/17 09:52:39;;;;;;;;;;;20.50;57.60;;;;;;5044276;28;43007;-76
2023/10/17 09:55:06;;;;;;;;;;;20.50;57.70;;;;;;5043065;28;44321;-77
2023/10/17 09:57:35;;;;;;;;;;;20.40;57.00;;;;;;5043292;28;43159;-79
2023/10/17 10:00:17;;;;;;;;;;;20.40;57.00;;;;;;5044352;28;42957;-77
2023/10/17 10:02:43;;;;;;;;;;;20.40;55.50;;;;;;5044650;28;42843;-78
2023/10/17 10:05:24;;;;;;;;;;;20.40;57.40;;;;;;5043434;28;42898;-77
2023/10/17 10:10:44;;;;;;;;;;;20.40;56.70;;;;;;5222804;22;42927;-78
2023/10/17 10:13:13;;;;;;;;;;;20.40;55.70;;;;;;5025638;28;42999;-76
2023/10/17 10:15:51;;;;;;;;;;;20.20;57.50;;;;;;5042957;28;43451;-79
2023/10/17 10:18:35;;;;;;;;;;;20.30;55.60;;;;;;5024767;28;42932;-77
2023/10/17 10:21:03;;;;;;;;;;;20.40;55.80;;;;;;5043280;28;43048;-79
2023/10/17 10:23:42;;;;;;;;;;;20.10;57.60;;;;;;5023706;28;43013;-78
2023/10/17 10:26:10;;;;;;;;;;;20.00;55.80;;;;;;5006845;28;43910;-78
2023/10/17 10:28:37;;;;;;;;;;;20.00;55.90;;;;;;5024997;28;43036;-77
2023/10/17 10:31:21;;;;;;;;;;;20.20;58.00;;;;;;5035198;28;43046;-78
2023/10/17 10:33:50;;;;;;;;;;;20.30;56.20;;;;;;5041760;28;42988;-78
2023/10/17 10:36:18;;;;;;;;;;;20.40;56.00;;;;;;5042468;28;43749;-76
2023/10/17 10:38:44;;;;;;;;;;;20.10;55.90;;;;;;5043119;28;42948;-78
2023/10/17 10:41:13;;;;;;;;;;;20.30;57.70;;;;;;5042708;28;43714;-77
2023/10/17 10:43:39;;;;;;;;;;;20.10;57.30;;;;;;5039563;28;42942;-77
2023/10/17 10:46:05;;;;;;;;;;;20.20;57.50;;;;;;5043375;28;42948;-78
2023/10/17 10:48:32;;;;;;;;;;;20.10;57.40;;;;;;5050970;28;42904;-77
2023/10/17 10:50:59;;;;;;;;;;;20.30;58.00;;;;;;5061542;28;44606;-77
2023/10/17 10:53:32;;;;;;;;;;;20.30;57.90;;;;;;5050208;28;42980;-78
2023/10/17 11:13:44;;;;;;;;;;;20.20;55.50;;;;;;5035329;28;43055;-78
2023/10/17 11:16:10;;;;;;;;;;;20.30;57.20;;;;;;5028010;28;43078;-78
2023/10/17 11:21:12;;;;;;;;;;;19.50;56.90;;;;;;5327682;22;43033;-78
2023/10/17 11:23:40;;;;;;;;;;;20.40;57.90;;;;;;5047564;28;43073;-79
2023/10/17 11:26:11;;;;;;;;;;;20.40;57.60;;;;;;5047666;28;42853;-76
2023/10/17 11:28:42;;;;;;;;;;;20.40;58.20;;;;;;5046851;28;43040;-78
2023/10/17 11:31:21;;;;;;;;;;;20.40;58.10;;;;;;5046524;28;42955;-78
2023/10/17 11:34:02;;;;;;;;;;;20.30;56.10;;;;;;5045356;28;44829;-77
2023/10/17 11:36:37;;;;;;;;;;;20.20;56.10;;;;;;5046747;28;42860;-78
2023/10/17 11:39:05;;;;;;;;;;;20.30;56.80;;;;;;5045262;28;43180;-77
2023/10/17 11:41:39;;;;;;;;;;;20.40;58.60;;;;;;5045648;28;43209;-79
2023/10/17 11:44:05;;;;;;;;;;;20.40;58.60;;;;;;5046062;28;42939;-77
2023/10/17 11:46:32;;;;;;;;;;;20.50;58.30;;;;;;5038994;28;43188;-78
2023/10/17 11:49:20;;;;;;;;;;;20.50;59.00;;;;;;5024969;28;43222;-78
2023/10/17 11:52:05;;;;;;;;;;;20.50;57.50;;;;;;5026079;28;43062;-78
2023/10/17 11:54:49;;;;;;;;;;;20.40;57.40;;;;;;5024787;28;43003;-78
2023/10/17 11:57:16;;;;;;;;;;;20.40;57.00;;;;;;5032233;28;43085;-77
2023/10/17 11:59:57;;;;;;;;;;;20.50;58.80;;;;;;5046066;28;43014;-78
2023/10/17 12:02:24;;;;;;;;;;;20.40;56.70;;;;;;5020376;28;42999;-78
2023/10/17 12:04:49;;;;;;;;;;;20.40;58.60;;;;;;5025181;28;43876;-78
2023/10/17 12:07:15;;;;;;;;;;;20.40;58.60;;;;;;5026346;28;42933;-78
2023/10/17 12:09:40;;;;;;;;;;;20.50;58.50;;;;;;5044535;22;43037;-78
2023/10/17 12:12:06;;;;;;;;;;;20.50;58.50;;;;;;5046426;28;42861;-78
2023/10/17 12:17:10;;;;;;;;;;;20.50;58.40;;;;;;5274249;22;43387;-78
2023/10/17 12:25:23;;;;;;;;;;;20.40;58.50;;;;;;5066483;22;42966;-78
2023/10/17 12:27:58;;;;;;;;;;;20.50;56.70;;;;;;5030672;28;43033;-77
2023/10/17 12:30:39;;;;;;;;;;;20.30;56.80;;;;;;5064634;28;43139;-77
2023/10/17 12:33:11;;;;;;;;;;;20.30;58.70;;;;;;5035526;28;43148;-78
2023/10/17 12:35:37;;;;;;;;;;;20.40;58.50;;;;;;5047028;22;43073;-78
2023/10/17 12:52:49;;;;;;;;;;;;;;;;;;5092417;22;42962;31
2023/10/17 13:01:33;;;;;;;;;;;20.40;57.00;;;;;;5061408;28;43121;-78
2023/10/17 13:06:48;;;;;;;;;;;20.30;59.20;;;;;;5288455;22;43340;-79
2023/10/17 13:09:38;;;;;;;;;;;20.40;59.10;;;;;;5050246;28;43729;-79
2023/10/17 13:12:05;;;;;;;;;;;20.40;59.00;;;;;;5135167;22;43526;-79
2023/10/17 13:14:30;;;;;;;;;;;20.70;59.60;;;;;;5045518;28;42845;-79
2023/10/17 13:16:56;;;;;;;;;;;20.40;59.30;;;;;;5045172;28;42801;-79
2023/10/17 13:19:21;;;;;;;;;;;20.50;59.20;;;;;;5034245;28;42971;-78
2023/10/17 13:21:47;;;;;;;;;;;20.50;59.80;;;;;;5045236;28;42953;-78
2023/10/17 13:24:14;;;;;;;;;;;20.60;59.30;;;;;;5047868;28;43555;-78
2023/10/17 13:26:40;;;;;;;;;;;20.50;59.80;;;;;;5053640;28;42351;-78
2023/10/17 13:29:05;;;;;;;;;;;20.40;59.30;;;;;;5034899;28;42973;-78
2023/10/17 13:31:33;;;;;;;;;;;20.40;59.10;;;;;;5036170;28;43040;-79
2023/10/17 13:33:58;;;;;;;;;;;20.40;58.20;;;;;;5026022;28;42778;-79
2023/10/17 13:36:24;;;;;;;;;;;20.60;59.40;;;;;;5045093;28;42804;-78
2023/10/17 13:38:50;;;;;;;;;;;20.50;59.30;;;;;;5044912;28;43428;-79
2023/10/17 13:41:15;;;;;;;;;;;20.50;59.30;;;;;;5038654;28;42955;-78
2023/10/17 13:43:42;;;;;;;;;;;20.40;59.50;;;;;;5044435;28;44611;-79
2023/10/17 13:46:09;;;;;;;;;;;20.40;59.70;;;;;;5025514;28;42992;-79
2023/10/17 13:48:36;;;;;;;;;;;20.60;59.40;;;;;;5120730;22;43868;-78
2023/10/17 13:51:06;;;;;;;;;;;20.50;60.10;;;;;;5060792;28;42921;-77
2023/10/17 13:53:52;;;;;;;;;;;20.40;58.20;;;;;;5060345;28;43427;-79
2023/10/17 13:56:18;;;;;;;;;;;20.40;60.10;;;;;;5061197;28;42957;-78
2023/10/17 13:58:44;;;;;;;;;;;20.40;59.90;;;;;;5064972;28;43589;-79
2023/10/17 14:03:55;;;;;;;;;;;20.50;59.00;;;;;;5062964;28;43370;-77
2023/10/17 14:06:21;;;;;;;;;;;20.40;59.80;;;;;;5065288;28;42958;-76
2023/10/17 14:08:47;;;;;;;;;;;20.40;59.90;;;;;;5048601;28;43474;-79
2023/10/17 14:11:17;;;;;;;;;;;20.40;59.70;;;;;;5056519;28;43151;-76
2023/10/17 14:13:47;;;;;;;;;;;20.80;60.40;;;;;;5058207;28;42947;-77
2023/10/17 14:16:13;;;;;;;;;;;20.40;59.60;;;;;;5045647;28;43033;-74
2023/10/17 14:18:46;;;;;;;;;;;20.30;60.20;;;;;;5061724;28;43552;-81
2023/10/17 14:21:34;;;;;;;;;;;20.50;59.00;;;;;;5051506;28;42957;-82
2023/10/17 14:24:07;;;;;;;;;;;20.50;60.10;;;;;;5045137;28;43063;-75
2023/10/17 14:26:34;;;;;;;;;;;20.40;59.60;;;;;;5056113;28;43065;-78
2023/10/17 14:29:03;;;;;;;;;;;20.50;59.60;;;;;;5067789;28;42954;-77
2023/10/17 14:31:29;;;;;;;;;;;20.40;57.80;;;;;;5056970;28;43041;-77
2023/10/17 14:33:59;;;;;;;;;;;19.10;58.60;;;;;;5048142;28;44103;-79
2023/10/17 14:36:24;;;;;;;;;;;20.40;59.50;;;;;;5037685;28;43164;-77
2023/10/17 14:38:50;;;;;;;;;;;20.30;60.10;;;;;;5058392;28;43644;-75
2023/10/17 14:41:16;;;;;;;;;;;20.40;60.20;;;;;;5065027;28;42915;-78
2023/10/17 14:43:49;;;;;;;;;;;20.40;60.10;;;;;;5058708;28;43066;-84
2023/10/17 14:46:16;;;;;;;;;;;20.50;58.70;;;;;;5065390;28;43049;-79
2023/10/17 14:48:42;;;;;;;;;;;20.50;59.70;;;;;;5056288;28;43590;-79
2023/10/17 14:51:08;;;;;;;;;;;20.30;60.10;;;;;;5048113;28;42986;-80
2023/10/17 14:53:33;;;;;;;;;;;20.40;60.00;;;;;;5051342;28;43428;-79
2023/10/17 14:55:59;;;;;;;;;;;20.40;60.10;;;;;;5048182;28;43028;-77
2023/10/17 14:59:00;;;;;;;;;;;20.30;59.90;;;;;;5054207;28;43772;-76
2023/10/17 15:01:26;;;;;;;;;;;20.30;58.70;;;;;;5054049;28;42996;-81
2023/10/17 15:03:51;;;;;;;;;;;20.40;60.00;;;;;;5047663;28;43318;-76
2023/10/17 15:06:18;;;;;;;;;;;20.50;60.70;;;;;;5050062;28;42979;-76
2023/10/17 15:11:29;;;;;;;;;;;20.40;58.30;;;;;;5055816;28;43110;-85
2023/10/17 15:13:54;;;;;;;;;;;20.40;60.60;;;;;;5043516;28;44513;-77
2023/10/17 15:16:20;;;;;;;;;;;20.50;60.60;;;;;;5061321;28;43322;-85
2023/10/17 15:18:45;;;;;;;;;;;20.40;60.30;;;;;;5053748;22;44305;-80
2023/10/17 15:21:18;;;;;;;;;;;20.60;59.80;;;;;;5045733;28;42923;-78
2023/10/17 15:23:47;;;;;;;;;;;19.10;56.90;;;;;;5064513;28;43068;-80
2023/10/17 15:32:35;;;;;;;;;;;20.30;60.10;;;;;;5685028;22;43333;-79
2023/10/17 15:35:01;;;;;;;;;;;20.30;58.20;;;;;;5023533;28;43009;-83
2023/10/17 15:37:28;;;;;;;;;;;20.40;59.80;;;;;;5020237;28;43520;-83
2023/10/17 15:39:53;;;;;;;;;;;20.50;59.90;;;;;;5042144;28;43340;-82
2023/10/17 15:42:19;;;;;;;;;;;20.60;60.40;;;;;;5046642;28;42985;-77
2023/10/17 15:44:48;;;;;;;;;;;20.50;60.40;;;;;;5026125;28;45597;-81
2023/10/17 15:47:14;;;;;;;;;;;20.50;58.50;;;;;;5028835;28;43346;-79
2023/10/17 15:49:39;;;;;;;;;;;20.40;60.70;;;;;;5025955;28;43569;-76
2023/10/17 15:52:20;;;;;;;;;;;20.40;60.70;;;;;;5025829;28;43018;-84
2023/10/17 15:54:50;;;;;;;;;;;20.30;58.90;;;;;;5037518;28;43778;-79
2023/10/17 15:57:16;;;;;;;;;;;20.20;59.40;;;;;;5032823;28;42999;-80
2023/10/17 15:59:41;;;;;;;;;;;20.30;61.10;;;;;;5021363;28;43099;-76
2023/10/17 16:02:13;;;;;;;;;;;20.30;61.00;;;;;;5023702;28;42980;-81
2023/10/17 16:04:41;;;;;;;;;;;20.40;59.50;;;;;;5026205;28;43331;-76
2023/10/17 16:07:10;;;;;;;;;;;20.40;59.60;;;;;;5018556;28;42933;-82
2023/10/17 16:09:35;;;;;;;;;;;20.50;61.80;;;;;;5004150;28;44327;-82
2023/10/17 16:12:04;;;;;;;;;;;20.50;61.90;;;;;;5017288;28;42928;-76
2023/10/17 16:14:30;;;;;;;;;;;20.50;62.10;;;;;;5015113;28;44686;-75
2023/10/17 16:16:56;;;;;;;;;;;20.20;62.10;;;;;;4998109;28;42992;-77
2023/10/17 16:19:21;;;;;;;;;;;20.30;62.30;;;;;;5020822;28;43638;-77
2023/10/17 16:21:47;;;;;;;;;;;20.40;62.50;;;;;;5018396;28;42987;-79
2023/10/17 16:24:12;;;;;;;;;;;20.40;62.40;;;;;;5015831;28;43538;-77
2023/10/17 16:26:38;;;;;;;;;;;20.20;62.60;;;;;;5015858;28;43204;-81
2023/10/17 16:29:04;;;;;;;;;;;20.20;62.70;;;;;;5026280;28;43578;-77
2023/10/17 16:31:30;;;;;;;;;;;20.30;62.70;;;;;;5003638;28;42965;-77
2023/10/17 16:33:56;;;;;;;;;;;20.70;63.80;;;;;;5021757;28;42915;-82
2023/10/17 16:36:21;;;;;;;;;;;20.30;63.30;;;;;;5022109;28;43107;-79
2023/10/17 16:38:47;;;;;;;;;;;20.30;63.60;;;;;;5030945;28;43434;-78
2023/10/17 16:41:13;;;;;;;;;;;20.30;64.20;;;;;;5003360;28;43042;-80
2023/10/17 16:43:38;;;;;;;;;;;20.40;63.90;;;;;;5020850;28;43577;-81
2023/10/17 16:46:04;;;;;;;;;;;20.40;63.30;;;;;;5024520;28;42996;-76
2023/10/17 16:48:30;;;;;;;;;;;20.40;63.50;;;;;;5024737;28;43469;-79
2023/10/17 16:50:56;;;;;;;;;;;20.40;64.50;;;;;;5025201;28;43064;-78
2023/10/17 16:53:22;;;;;;;;;;;20.60;64.30;;;;;;5023875;28;43062;-77
2023/10/17 16:55:48;;;;;;;;;;;20.30;63.40;;;;;;5023933;28;42981;-76
2023/10/17 16:58:13;;;;;;;;;;;20.50;63.90;;;;;;5026081;28;43015;-78
2023/10/17 17:00:39;;;;;;;;;;;20.50;63.50;;;;;;5027425;28;43000;-75
2023/10/17 17:03:05;;;;;;;;;;;20.50;64.30;;;;;;5025173;28;42865;-76
2023/10/17 17:05:30;;;;;;;;;;;20.60;63.60;;;;;;5024169;28;43068;-75
2023/10/17 17:07:57;;;;;;;;;;;20.70;64.00;;;;;;5025389;28;43053;-79
2023/10/17 17:10:23;;;;;;;;;;;20.60;64.30;;;;;;5023229;28;43242;-75
2023/10/17 17:12:48;;;;;;;;;;;20.70;63.90;;;;;;5019497;28;44225;-75
2023/10/17 17:15:14;;;;;;;;;;;20.70;63.90;;;;;;5024473;28;43003;-77
2023/10/17 17:17:40;;;;;;;;;;;20.60;64.40;;;;;;5013219;28;42990;-76
2023/10/17 17:20:11;;;;;;;;;;;20.70;64.60;;;;;;5017774;28;42957;-76
2023/10/17 17:22:37;;;;;;;;;;;20.60;64.20;;;;;;5017591;28;43836;-77
2023/10/17 17:25:04;;;;;;;;;;;20.60;64.60;;;;;;5022631;28;43119;-78
2023/10/17 17:27:31;;;;;;;;;;;20.70;64.20;;;;;;5023203;28;43672;-75
2023/10/17 17:29:57;;;;;;;;;;;20.80;64.70;;;;;;5016231;28;42970;-78
2023/10/17 17:32:23;;;;;;;;;;;20.70;64.80;;;;;;5014873;28;43545;-75
2023/10/17 17:34:48;;;;;;;;;;;20.50;64.80;;;;;;5017338;28;42984;-78
2023/10/17 17:37:14;;;;;;;;;;;20.90;65.00;;;;;;5013702;28;43027;-78
2023/10/17 17:39:40;;;;;;;;;;;20.80;64.90;;;;;;5014516;28;42944;-77
2023/10/17 17:42:05;;;;;;;;;;;20.70;64.90;;;;;;5014163;28;42956;-78
2023/10/17 17:44:31;;;;;;;;;;;20.70;64.40;;;;;;5019513;28;43024;-75
2023/10/17 17:46:57;;;;;;;;;;;20.60;64.40;;;;;;5014092;28;43470;-76
2023/10/17 17:49:22;;;;;;;;;;;20.60;64.70;;;;;;5021435;28;43247;-75
2023/10/17 17:51:48;;;;;;;;;;;20.70;64.90;;;;;;5022623;28;43126;-75
2023/10/17 17:54:15;;;;;;;;;;;20.70;65.00;;;;;;5030324;28;42979;-75
2023/10/17 17:56:43;;;;;;;;;;;20.70;65.00;;;;;;5036577;28;42946;-75
2023/10/17 17:59:09;;;;;;;;;;;20.70;65.00;;;;;;5030352;28;43045;-75
2023/10/17 18:01:34;;;;;;;;;;;20.80;64.60;;;;;;5047791;28;43868;-74
2023/10/17 18:04:01;;;;;;;;;;;21.00;65.60;;;;;;5036845;28;42982;-75
2023/10/17 18:06:27;;;;;;;;;;;20.70;64.70;;;;;;5023662;28;43536;-76
2023/10/17 18:08:53;;;;;;;;;;;20.70;65.40;;;;;;5020836;28;43041;-74
2023/10/17 18:11:19;;;;;;;;;;;20.70;64.80;;;;;;5021606;28;43412;-76
2023/10/17 18:13:45;;;;;;;;;;;20.80;64.90;;;;;;5006589;28;44088;-76
2023/10/17 18:16:11;;;;;;;;;;;20.80;64.80;;;;;;5020473;28;43494;-76
2023/10/17 18:18:36;;;;;;;;;;;20.60;64.90;;;;;;5016155;28;43066;-76
2023/10/17 18:21:03;;;;;;;;;;;20.80;65.50;;;;;;5016967;28;43103;-76
2023/10/17 18:23:30;;;;;;;;;;;20.70;65.50;;;;;;5018783;28;42827;-75
2023/10/17 18:25:56;;;;;;;;;;;20.80;65.60;;;;;;5024470;28;43603;-75
2023/10/17 18:28:21;;;;;;;;;;;20.70;65.60;;;;;;5025082;28;42934;-75
2023/10/17 18:30:47;;;;;;;;;;;20.80;65.20;;;;;;5024445;28;43102;-76
2023/10/17 18:33:12;;;;;;;;;;;20.90;65.20;;;;;;5032759;28;42940;-76
2023/10/17 18:35:38;;;;;;;;;;;20.70;65.80;;;;;;5024437;28;43067;-76
2023/10/17 18:38:03;;;;;;;;;;;20.70;65.60;;;;;;5030395;28;42852;-74
2023/10/17 18:40:31;;;;;;;;;;;20.80;65.80;;;;;;5028695;28;42921;-75
2023/10/17 18:42:56;;;;;;;;;;;20.60;65.90;;;;;;5022459;28;43068;-76
2023/10/17 18:45:25;;;;;;;;;;;20.70;65.80;;;;;;5046972;28;43327;-74
2023/10/17 18:47:50;;;;;;;;;;;20.60;66.20;;;;;;5046697;28;42803;-74
2023/10/17 18:50:16;;;;;;;;;;;20.50;66.30;;;;;;5045575;28;43705;-76
2023/10/17 18:52:42;;;;;;;;;;;20.40;66.00;;;;;;5026054;28;42995;-75
2023/10/17 18:55:10;;;;;;;;;;;20.50;65.80;;;;;;5027461;28;43065;-77
2023/10/17 18:57:37;;;;;;;;;;;20.40;65.20;;;;;;5026414;28;43050;-76
2023/10/17 19:00:06;;;;;;;;;;;20.40;66.30;;;;;;5026151;28;43379;-75
2023/10/17 19:02:31;;;;;;;;;;;20.50;66.10;;;;;;5025599;28;42830;-75
2023/10/17 19:04:58;;;;;;;;;;;20.40;66.20;;;;;;5025527;28;43653;-75
2023/10/17 19:07:24;;;;;;;;;;;20.50;66.20;;;;;;5017960;28;43140;-75
2023/10/17 19:09:50;;;;;;;;;;;20.40;65.80;;;;;;5018493;28;43545;-76
2023/10/17 19:12:15;;;;;;;;;;;20.40;65.90;;;;;;5022074;28;42906;-76
2023/10/17 19:14:41;;;;;;;;;;;20.40;66.00;;;;;;5014880;28;43383;-76
2023/10/17 19:17:06;;;;;;;;;;;20.50;66.50;;;;;;5015377;28;42874;-77
2023/10/17 19:19:32;;;;;;;;;;;20.50;66.70;;;;;;5020654;28;43028;-75
2023/10/17 19:21:57;;;;;;;;;;;20.50;66.60;;;;;;5020623;28;42867;-80
2023/10/17 19:24:23;;;;;;;;;;;20.30;65.80;;;;;;5015552;28;43841;-75
2023/10/17 19:26:48;;;;;;;;;;;20.40;65.70;;;;;;5015972;28;43043;-74
2023/10/17 19:29:14;;;;;;;;;;;20.50;66.50;;;;;;5017702;28;42961;-78
2023/10/17 19:31:40;;;;;;;;;;;20.50;65.80;;;;;;5024303;28;42918;-78
2023/10/17 19:34:06;;;;;;;;;;;21.00;66.70;;;;;;5015979;28;43544;-74
2023/10/17 19:36:31;;;;;;;;;;;20.50;65.90;;;;;;5017713;28;42964;-77
2023/10/17 19:38:59;;;;;;;;;;;20.50;66.30;;;;;;5010607;28;43110;-77
2023/10/17 19:41:25;;;;;;;;;;;20.70;66.70;;;;;;5019153;28;42983;-74
2023/10/17 19:43:50;;;;;;;;;;;20.40;66.40;;;;;;5016179;28;43517;-74
2023/10/17 19:46:16;;;;;;;;;;;20.20;66.00;;;;;;5019894;28;42972;-74
2023/10/17 19:48:43;;;;;;;;;;;20.40;66.40;;;;;;5024735;28;42964;-74
2023/10/17 19:51:10;;;;;;;;;;;20.60;65.80;;;;;;5017095;28;43057;-73
2023/10/17 19:53:38;;;;;;;;;;;20.50;66.20;;;;;;5014110;28;42992;-75
2023/10/17 19:56:07;;;;;;;;;;;20.60;66.10;;;;;;5019365;28;43102;-75
2023/10/17 19:58:34;;;;;;;;;;;20.50;64.10;;;;;;5017165;28;43404;-74
2023/10/17 20:01:07;;;;;;;;;;;20.50;66.30;;;;;;5008210;28;43063;-74
2023/10/17 20:03:32;;;;;;;;;;;20.40;64.30;;;;;;5020955;28;43715;-75
2023/10/17 20:05:58;;;;;;;;;;;20.50;65.90;;;;;;5022831;28;43034;-74
2023/10/17 20:08:23;;;;;;;;;;;20.50;65.80;;;;;;5016198;28;43080;-75
2023/10/17 20:10:58;;;;;;;;;;;20.40;65.80;;;;;;5009560;28;42988;-74
2023/10/17 20:13:24;;;;;;;;;;;20.30;65.70;;;;;;5025088;28;44861;-75
2023/10/17 20:15:51;;;;;;;;;;;20.60;66.10;;;;;;5009914;28;42910;-75
2023/10/17 20:18:17;;;;;;;;;;;20.50;65.80;;;;;;5023276;28;43293;-74
2023/10/17 20:20:43;;;;;;;;;;;20.40;65.60;;;;;;5023748;28;43145;-74
2023/10/17 20:23:09;;;;;;;;;;;20.20;66.00;;;;;;5022642;28;43530;-74
2023/10/17 20:25:34;;;;;;;;;;;20.30;65.90;;;;;;5023644;28;42901;-74
2023/10/17 20:28:00;;;;;;;;;;;20.40;66.40;;;;;;5016332;28;43523;-74
2023/10/17 20:30:26;;;;;;;;;;;20.20;66.40;;;;;;5014197;28;42960;-77
2023/10/17 20:32:54;;;;;;;;;;;20.40;66.40;;;;;;5006659;28;44690;-74
2023/10/17 20:35:20;;;;;;;;;;;20.40;66.20;;;;;;5023728;28;42924;-73
2023/10/17 20:37:45;;;;;;;;;;;20.30;65.80;;;;;;5023696;28;43007;-74
2023/10/17 20:40:12;;;;;;;;;;;20.40;66.40;;;;;;5023776;28;42889;-74
2023/10/17 20:42:39;;;;;;;;;;;20.50;65.70;;;;;;5022768;28;43739;-77
2023/10/17 20:45:09;;;;;;;;;;;20.40;66.30;;;;;;5022928;28;43102;-76
2023/10/17 20:47:35;;;;;;;;;;;20.30;65.60;;;;;;5015197;28;43583;-74
2023/10/17 20:50:01;;;;;;;;;;;20.30;66.40;;;;;;5015560;28;42870;-76
2023/10/17 20:52:27;;;;;;;;;;;20.30;66.30;;;;;;5014603;28;43656;-77
2023/10/17 20:54:53;;;;;;;;;;;20.30;66.20;;;;;;5009024;28;43582;-73